Time;durP1;ratioP1;P1;durP2;ratioP2;P2;SDS_P1;SDS_P2;PMS_P1;PMS_P2;Temp;Humidity;BMP_temperature;BMP_pressure;BME280_temperature;BME280_humidity;BME280_pressure;Samples;Min_cycle;Max_cycle;Signal;HPM_P1;HPM_P2
2022/10/10 00:02:13;;;;;;;;;;;;;;;;;;5017072;28;19921;-35
2022/10/10 00:04:38;;;;;;;;;;;;;;;;;;5014682;28;20336;-35
2022/10/10 00:07:03;;;;;;;;;;;;;;;;;;5014757;28;20177;-35
2022/10/10 00:09:28;;;;;;;;;;;;;;;;;;5016158;28;19935;-35
2022/10/10 00:11:53;;;;;;;;;;;;;;;;;;5011774;28;19924;-36
2022/10/10 00:14:19;;;;;;;;;;;;;;;;;;5012138;28;20175;-35
2022/10/10 00:16:44;;;;;;;;;;;;;;;;;;5012520;28;19917;-36
2022/10/10 00:19:09;;;;;;;;;;;;;;;;;;5014584;28;20101;-35
2022/10/10 00:21:34;;;;;;;;;;;;;;;;;;5014885;28;19967;-35
2022/10/10 00:23:59;;;;;;;;;;;;;;;;;;5017136;28;19972;-35
2022/10/10 00:26:25;;;;;;;;;;;;;;;;;;5011672;28;20020;-35
2022/10/10 00:28:50;;;;;;;;;;;;;;;;;;5012407;28;19928;-35
2022/10/10 00:31:15;;;;;;;;;;;;;;;;;;5015193;28;19928;-35
2022/10/10 00:33:40;;;;;;;;;;;;;;;;;;5013600;28;19914;-35
2022/10/10 00:36:05;;;;;;;;;;;;;;;;;;5012247;28;19926;-35
2022/10/10 00:38:31;;;;;;;;;;;;;;;;;;5016038;28;19956;-35
2022/10/10 00:40:56;;;;;;;;;;;;;;;;;;5013052;28;19921;-35
2022/10/10 00:43:21;;;;;;;;;;;;;;;;;;5014504;28;19979;-35
2022/10/10 00:45:46;;;;;;;;;;;;;;;;;;5012028;28;20214;-35
2022/10/10 00:48:12;;;;;;;;;;;;;;;;;;5012118;28;20045;-35
2022/10/10 00:50:37;;;;;;;;;;;;;;;;;;5019527;28;20378;-35
2022/10/10 00:53:02;;;;;;;;;;;;;;;;;;5012590;28;19913;-35
2022/10/10 00:55:27;;;;;;;;;;;;;;;;;;5013994;28;19913;-35
2022/10/10 00:57:52;;;;;;;;;;;;;;;;;;5015079;28;19981;-35
2022/10/10 01:00:17;;;;;;;;;;;;;;;;;;5012118;28;19913;-35
2022/10/10 01:02:42;;;;;;;;;;;;;;;;;;5014150;28;20410;-36
2022/10/10 01:05:08;;;;;;;;;;;;;;;;;;5013587;28;19964;-35
2022/10/10 01:07:33;;;;;;;;;;;;;;;;;;5011970;28;19917;-35
2022/10/10 01:09:58;;;;;;;;;;;;;;;;;;5013263;28;19913;-35
2022/10/10 01:12:23;;;;;;;;;;;;;;;;;;5013556;28;19921;-35
2022/10/10 01:14:48;;;;;;;;;;;;;;;;;;5013579;28;20876;-35
2022/10/10 01:17:13;;;;;;;;;;;;;;;;;;5010349;28;19929;-35
2022/10/10 01:19:39;;;;;;;;;;;;;;;;;;5012562;28;19952;-35
2022/10/10 01:22:04;;;;;;;;;;;;;;;;;;5014960;28;19924;-35
2022/10/10 01:24:29;;;;;;;;;;;;;;;;;;5011579;28;19921;-35
2022/10/10 01:26:54;;;;;;;;;;;;;;;;;;5011358;28;20406;-35
2022/10/10 01:29:19;;;;;;;;;;;;;;;;;;5014801;28;19917;-35
2022/10/10 01:31:45;;;;;;;;;;;;;;;;;;5015321;28;19921;-35
2022/10/10 01:34:10;;;;;;;;;;;;;;;;;;5014446;28;19940;-35
2022/10/10 01:36:35;;;;;;;;;;;;;;;;;;5012760;28;20391;-35
2022/10/10 01:39:00;;;;;;;;;;;;;;;;;;5012117;28;19921;-36
2022/10/10 01:41:25;;;;;;;;;;;;;;;;;;5016864;28;19924;-35
2022/10/10 01:43:50;;;;;;;;;;;;;;;;;;5014961;28;20298;-35
2022/10/10 01:46:16;;;;;;;;;;;;;;;;;;5012511;28;19928;-35
2022/10/10 01:48:41;;;;;;;;;;;;;;;;;;5016717;28;19940;-35
2022/10/10 01:51:06;;;;;;;;;;;;;;;;;;5016101;28;20497;-35
2022/10/10 01:53:31;;;;;;;;;;;;;;;;;;5011590;28;19921;-35
2022/10/10 01:55:56;;;;;;;;;;;;;;;;;;5014635;28;19924;-36
2022/10/10 01:58:21;;;;;;;;;;;;;;;;;;5011703;28;20259;-35
2022/10/10 02:00:46;;;;;;;;;;;;;;;;;;5011588;28;19914;-36
2022/10/10 02:03:12;;;;;;;;;;;;;;;;;;5013233;28;20382;-35
2022/10/10 02:05:37;;;;;;;;;;;;;;;;;;5016483;28;19913;-35
2022/10/10 02:08:02;;;;;;;;;;;;;;;;;;5011617;28;20353;-35
2022/10/10 02:10:27;;;;;;;;;;;;;;;;;;5011353;28;19936;-35
2022/10/10 02:12:52;;;;;;;;;;;;;;;;;;5014972;28;19924;-35
2022/10/10 02:15:17;;;;;;;;;;;;;;;;;;5011533;28;19923;-35
2022/10/10 02:17:43;;;;;;;;;;;;;;;;;;5017089;28;19983;-35
2022/10/10 02:20:08;;;;;;;;;;;;;;;;;;5010262;28;19921;-35
2022/10/10 02:22:33;;;;;;;;;;;;;;;;;;5011389;28;19914;-35
2022/10/10 02:24:58;;;;;;;;;;;;;;;;;;5009676;28;19948;-35
2022/10/10 02:27:23;;;;;;;;;;;;;;;;;;5021502;28;20367;-35
2022/10/10 02:29:48;;;;;;;;;;;;;;;;;;5011077;28;20209;-35
2022/10/10 02:32:14;;;;;;;;;;;;;;;;;;5012631;28;19957;-35
2022/10/10 02:34:39;;;;;;;;;;;;;;;;;;5011193;28;20313;-35
2022/10/10 02:37:04;;;;;;;;;;;;;;;;;;5010722;28;20295;-35
2022/10/10 02:39:29;;;;;;;;;;;;;;;;;;5012928;28;19968;-35
2022/10/10 02:41:55;;;;;;;;;;;;;;;;;;5014221;28;19924;-35
2022/10/10 02:44:20;;;;;;;;;;;;;;;;;;5012565;28;19928;-35
2022/10/10 02:46:45;;;;;;;;;;;;;;;;;;5014348;28;20409;-35
2022/10/10 02:49:10;;;;;;;;;;;;;;;;;;5011254;28;19969;-35
2022/10/10 02:51:35;;;;;;;;;;;;;;;;;;5013804;28;19979;-35
2022/10/10 02:54:00;;;;;;;;;;;;;;;;;;5011375;28;19928;-35
2022/10/10 02:56:25;;;;;;;;;;;;;;;;;;5010002;28;20009;-35
2022/10/10 02:58:51;;;;;;;;;;;;;;;;;;5010273;28;19917;-35
2022/10/10 03:01:16;;;;;;;;;;;;;;;;;;5013656;28;19921;-35
2022/10/10 03:03:41;;;;;;;;;;;;;;;;;;5019176;28;19916;-35
2022/10/10 03:06:06;;;;;;;;;;;;;;;;;;5017887;28;21214;-35
2022/10/10 03:08:31;;;;;;;;;;;;;;;;;;5016505;28;20343;-35
2022/10/10 03:10:56;;;;;;;;;;;;;;;;;;5014953;28;19917;-35
2022/10/10 03:13:22;;;;;;;;;;;;;;;;;;5015255;28;19921;-35
2022/10/10 03:15:47;;;;;;;;;;;;;;;;;;5015454;28;19921;-36
2022/10/10 03:18:12;;;;;;;;;;;;;;;;;;5019736;28;20020;-35
2022/10/10 03:20:37;;;;;;;;;;;;;;;;;;5018316;28;19913;-35
2022/10/10 03:23:02;;;;;;;;;;;;;;;;;;5018198;28;19917;-35
2022/10/10 03:25:27;;;;;;;;;;;;;;;;;;5019241;28;19956;-35
2022/10/10 03:27:52;;;;;;;;;;;;;;;;;;5012816;28;19918;-35
2022/10/10 03:30:18;;;;;;;;;;;;;;;;;;5015706;28;19937;-35
2022/10/10 03:32:43;;;;;;;;;;;;;;;;;;5013186;28;20321;-35
2022/10/10 03:35:09;;;;;;;;;;;;;;;;;;5013784;28;19921;-35
2022/10/10 03:37:34;;;;;;;;;;;;;;;;;;5015463;28;19918;-35
2022/10/10 03:39:59;;;;;;;;;;;;;;;;;;5017735;28;19913;-35
2022/10/10 03:42:25;;;;;;;;;;;;;;;;;;5012685;28;20367;-35
2022/10/10 03:44:50;;;;;;;;;;;;;;;;;;5016876;28;20015;-35
2022/10/10 03:47:15;;;;;;;;;;;;;;;;;;5016700;28;19917;-35
2022/10/10 03:49:40;;;;;;;;;;;;;;;;;;5014957;28;19921;-35
2022/10/10 03:52:05;;;;;;;;;;;;;;;;;;5017372;28;20107;-35
2022/10/10 03:54:30;;;;;;;;;;;;;;;;;;5016314;28;19922;-35
2022/10/10 03:56:56;;;;;;;;;;;;;;;;;;5014959;28;19918;-35
2022/10/10 03:59:21;;;;;;;;;;;;;;;;;;5013131;28;19913;-35
2022/10/10 04:01:46;;;;;;;;;;;;;;;;;;5013466;28;20317;-35
2022/10/10 04:04:11;;;;;;;;;;;;;;;;;;5009450;28;19983;-35
2022/10/10 04:06:37;;;;;;;;;;;;;;;;;;5017892;28;19985;-35
2022/10/10 04:09:03;;;;;;;;;;;;;;;;;;5015126;28;20031;-35
2022/10/10 04:11:28;;;;;;;;;;;;;;;;;;5011817;28;20372;-35
2022/10/10 04:13:53;;;;;;;;;;;;;;;;;;5013358;28;19948;-35
2022/10/10 04:16:18;;;;;;;;;;;;;;;;;;5015172;28;20294;-35
2022/10/10 04:18:43;;;;;;;;;;;;;;;;;;5015692;28;19913;-35
2022/10/10 04:21:09;;;;;;;;;;;;;;;;;;5014816;28;19960;-35
2022/10/10 04:23:34;;;;;;;;;;;;;;;;;;5012832;28;20311;-35
2022/10/10 04:25:59;;;;;;;;;;;;;;;;;;5012059;28;19968;-35
2022/10/10 04:28:24;;;;;;;;;;;;;;;;;;5012040;28;19929;-35
2022/10/10 04:30:49;;;;;;;;;;;;;;;;;;5013991;28;19979;-35
2022/10/10 04:33:14;;;;;;;;;;;;;;;;;;5016749;28;20360;-35
2022/10/10 04:35:40;;;;;;;;;;;;;;;;;;5015451;28;19989;-35
2022/10/10 04:38:05;;;;;;;;;;;;;;;;;;5017383;28;19921;-35
2022/10/10 04:40:30;;;;;;;;;;;;;;;;;;5012389;28;20359;-36
2022/10/10 04:42:55;;;;;;;;;;;;;;;;;;5012390;28;19913;-35
2022/10/10 04:45:20;;;;;;;;;;;;;;;;;;5014109;28;20379;-35
2022/10/10 04:47:46;;;;;;;;;;;;;;;;;;5017064;28;19913;-35
2022/10/10 04:50:11;;;;;;;;;;;;;;;;;;5016688;28;19913;-35
2022/10/10 04:52:36;;;;;;;;;;;;;;;;;;5015645;28;20377;-35
2022/10/10 04:55:01;;;;;;;;;;;;;;;;;;5012701;28;19913;-35
2022/10/10 04:57:26;;;;;;;;;;;;;;;;;;5013953;28;19917;-35
2022/10/10 04:59:51;;;;;;;;;;;;;;;;;;5015784;28;19922;-35
2022/10/10 05:02:17;;;;;;;;;;;;;;;;;;5014887;28;20501;-35
2022/10/10 05:04:42;;;;;;;;;;;;;;;;;;5016531;28;19924;-35
2022/10/10 05:07:07;;;;;;;;;;;;;;;;;;5013475;28;19921;-36
2022/10/10 05:09:32;;;;;;;;;;;;;;;;;;5015363;28;20011;-33
2022/10/10 05:11:57;;;;;;;;;;;;;;;;;;5014649;28;19913;-33
2022/10/10 05:14:22;;;;;;;;;;;;;;;;;;5016030;28;19928;-33
2022/10/10 05:16:48;;;;;;;;;;;;;;;;;;5013487;28;19917;-34
2022/10/10 05:19:13;;;;;;;;;;;;;;;;;;5012678;28;20002;-34
2022/10/10 05:21:38;;;;;;;;;;;;;;;;;;5012976;28;20363;-34
2022/10/10 05:24:03;;;;;;;;;;;;;;;;;;5032134;28;19995;-34
2022/10/10 05:26:28;;;;;;;;;;;;;;;;;;5014071;28;19913;-34
2022/10/10 05:28:56;;;;;;;;;;;;;;;;;;5015944;28;20217;-34
2022/10/10 05:31:21;;;;;;;;;;;;;;;;;;5015070;28;19920;-34
2022/10/10 05:33:46;;;;;;;;;;;;;;;;;;5013693;28;20000;-33
2022/10/10 05:36:11;;;;;;;;;;;;;;;;;;5014334;28;19920;-34
2022/10/10 05:38:37;;;;;;;;;;;;;;;;;;5014361;28;20286;-33
2022/10/10 05:41:02;;;;;;;;;;;;;;;;;;5014683;28;19921;-32
2022/10/10 05:43:27;;;;;;;;;;;;;;;;;;5015696;28;20333;-32
2022/10/10 05:45:52;;;;;;;;;;;;;;;;;;5012624;28;19929;-32
2022/10/10 05:48:17;;;;;;;;;;;;;;;;;;5010566;28;19928;-32
2022/10/10 05:50:42;;;;;;;;;;;;;;;;;;5018976;28;19917;-32
2022/10/10 05:53:08;;;;;;;;;;;;;;;;;;5011292;28;20355;-32
2022/10/10 05:55:34;;;;;;;;;;;;;;;;;;5014849;28;19914;-32
2022/10/10 05:57:59;;;;;;;;;;;;;;;;;;5013991;28;19917;-32
2022/10/10 06:00:24;;;;;;;;;;;;;;;;;;5014650;28;19920;-32
2022/10/10 06:02:49;;;;;;;;;;;;;;;;;;5013050;28;20279;-32
2022/10/10 06:05:15;;;;;;;;;;;;;;;;;;5013287;28;20005;-32
2022/10/10 06:07:40;;;;;;;;;;;;;;;;;;5014121;28;19947;-32
2022/10/10 06:10:05;;;;;;;;;;;;;;;;;;5009397;28;19944;-32
2022/10/10 06:12:30;;;;;;;;;;;;;;;;;;5013486;28;19962;-32
2022/10/10 06:14:55;;;;;;;;;;;;;;;;;;5012482;28;19940;-32
2022/10/10 06:17:20;;;;;;;;;;;;;;;;;;5012031;28;19925;-32
2022/10/10 06:19:46;;;;;;;;;;;;;;;;;;5013239;28;20384;-32
2022/10/10 06:22:11;;;;;;;;;;;;;;;;;;5012831;28;19914;-32
2022/10/10 06:24:36;;;;;;;;;;;;;;;;;;5015382;28;19914;-32
2022/10/10 06:27:01;;;;;;;;;;;;;;;;;;5015307;28;19914;-32
2022/10/10 06:29:27;;;;;;;;;;;;;;;;;;5015435;28;21306;-32
2022/10/10 06:31:52;;;;;;;;;;;;;;;;;;5014874;28;19928;-32
2022/10/10 06:34:17;;;;;;;;;;;;;;;;;;5011550;28;19924;-32
2022/10/10 06:36:42;;;;;;;;;;;;;;;;;;5011923;28;19925;-32
2022/10/10 06:39:07;;;;;;;;;;;;;;;;;;5013610;28;19948;-32
2022/10/10 06:41:32;;;;;;;;;;;;;;;;;;5013041;28;19921;-32
2022/10/10 06:43:58;;;;;;;;;;;;;;;;;;5012631;28;19913;-32
2022/10/10 06:46:23;;;;;;;;;;;;;;;;;;5009476;28;20391;-32
2022/10/10 06:48:48;;;;;;;;;;;;;;;;;;5012482;28;19943;-32
2022/10/10 06:51:14;;;;;;;;;;;;;;;;;;5013023;28;20255;-32
2022/10/10 06:53:39;;;;;;;;;;;;;;;;;;5010924;28;19982;-32
2022/10/10 06:56:04;;;;;;;;;;;;;;;;;;5014179;28;20283;-32
2022/10/10 06:58:29;;;;;;;;;;;;;;;;;;5015395;28;19945;-32
2022/10/10 07:00:55;;;;;;;;;;;;;;;;;;5011457;28;20287;-32
2022/10/10 07:03:20;;;;;;;;;;;;;;;;;;5011041;28;19920;-32
2022/10/10 07:05:45;;;;;;;;;;;;;;;;;;5014613;28;19917;-32
2022/10/10 07:08:10;;;;;;;;;;;;;;;;;;5013510;28;19913;-32
2022/10/10 07:10:35;;;;;;;;;;;;;;;;;;5011684;28;19913;-32
2022/10/10 07:13:00;;;;;;;;;;;;;;;;;;5013602;28;19928;-32
2022/10/10 07:15:26;;;;;;;;;;;;;;;;;;5012097;28;19919;-32
2022/10/10 07:17:51;;;;;;;;;;;;;;;;;;5011192;28;19921;-32
2022/10/10 07:20:16;;;;;;;;;;;;;;;;;;5008618;28;19917;-32
2022/10/10 07:22:41;;;;;;;;;;;;;;;;;;5008409;28;19913;-32
2022/10/10 07:25:06;;;;;;;;;;;;;;;;;;5009406;28;20351;-32
2022/10/10 07:27:31;;;;;;;;;;;;;;;;;;5014318;28;19925;-32
2022/10/10 07:29:57;;;;;;;;;;;;;;;;;;5008333;28;19918;-32
2022/10/10 07:32:22;;;;;;;;;;;;;;;;;;5011074;28;19917;-32
2022/10/10 07:34:47;;;;;;;;;;;;;;;;;;5010861;28;20064;-32
2022/10/10 07:37:12;;;;;;;;;;;;;;;;;;5012580;28;19973;-32
2022/10/10 07:39:37;;;;;;;;;;;;;;;;;;5008084;28;19924;-32
2022/10/10 07:42:02;;;;;;;;;;;;;;;;;;5010784;28;20024;-32
2022/10/10 07:44:27;;;;;;;;;;;;;;;;;;5009320;28;19964;-32
2022/10/10 07:46:53;;;;;;;;;;;;;;;;;;5012160;28;19920;-32
2022/10/10 07:49:18;;;;;;;;;;;;;;;;;;5010516;28;20425;-32
2022/10/10 07:51:43;;;;;;;;;;;;;;;;;;5015070;28;19917;-32
2022/10/10 07:54:08;;;;;;;;;;;;;;;;;;5015004;28;19965;-32
2022/10/10 07:56:33;;;;;;;;;;;;;;;;;;5014542;28;19921;-32
2022/10/10 07:58:59;;;;;;;;;;;;;;;;;;5016189;28;19921;-32
2022/10/10 08:01:24;;;;;;;;;;;;;;;;;;5012444;28;19928;-32
2022/10/10 08:03:50;;;;;;;;;;;;;;;;;;5012835;28;19918;-32
2022/10/10 08:06:15;;;;;;;;;;;;;;;;;;5012280;28;19947;-32
2022/10/10 08:08:40;;;;;;;;;;;;;;;;;;5018481;28;19918;-32
2022/10/10 08:11:05;;;;;;;;;;;;;;;;;;5016346;28;20076;-32
2022/10/10 08:13:30;;;;;;;;;;;;;;;;;;5017909;28;20015;-32
2022/10/10 08:15:55;;;;;;;;;;;;;;;;;;5016429;28;19917;-32
2022/10/10 08:18:20;;;;;;;;;;;;;;;;;;5011601;28;19921;-32
2022/10/10 08:20:46;;;;;;;;;;;;;;;;;;5016370;28;19914;-32
2022/10/10 08:23:11;;;;;;;;;;;;;;;;;;5010725;28;19925;-32
2022/10/10 08:25:36;;;;;;;;;;;;;;;;;;5018120;28;20327;-32
2022/10/10 08:28:01;;;;;;;;;;;;;;;;;;5016089;28;19921;-32
2022/10/10 08:30:26;;;;;;;;;;;;;;;;;;5013916;28;19917;-32
2022/10/10 08:32:51;;;;;;;;;;;;;;;;;;5016296;28;20580;-32
2022/10/10 08:35:17;;;;;;;;;;;;;;;;;;5012032;28;20413;-32
2022/10/10 08:37:42;;;;;;;;;;;;;;;;;;5012370;28;19925;-32
2022/10/10 08:40:07;;;;;;;;;;;;;;;;;;5007710;28;20521;-33
2022/10/10 08:42:32;;;;;;;;;;;;;;;;;;5014847;28;19925;-33
2022/10/10 08:44:57;;;;;;;;;;;;;;;;;;5012385;28;19913;-32
2022/10/10 08:47:22;;;;;;;;;;;;;;;;;;5012104;28;19918;-32
2022/10/10 08:49:47;;;;;;;;;;;;;;;;;;5009487;28;19918;-32
2022/10/10 08:52:13;;;;;;;;;;;;;;;;;;5011323;28;19910;-32
2022/10/10 08:54:38;;;;;;;;;;;;;;;;;;5008958;28;20364;-32
2022/10/10 08:57:03;;;;;;;;;;;;;;;;;;5006402;28;19925;-32
2022/10/10 08:59:28;;;;;;;;;;;;;;;;;;5006268;28;19922;-33
2022/10/10 09:01:53;;;;;;;;;;;;;;;;;;5011300;28;19916;-33
2022/10/10 09:04:18;;;;;;;;;;;;;;;;;;5006365;28;19913;-32
2022/10/10 09:06:44;;;;;;;;;;;;;;;;;;5008550;28;19917;-33
2022/10/10 09:09:09;;;;;;;;;;;;;;;;;;5007218;28;19917;-33
2022/10/10 09:11:34;;;;;;;;;;;;;;;;;;5009588;28;19917;-33
2022/10/10 09:13:59;;;;;;;;;;;;;;;;;;5013764;28;19917;-33
2022/10/10 09:16:24;;;;;;;;;;;;;;;;;;5013206;28;19913;-33
2022/10/10 09:18:51;;;;;;;;;;;;;;;;;;5007770;28;20355;-33
2022/10/10 09:21:16;;;;;;;;;;;;;;;;;;5011202;28;19917;-33
2022/10/10 09:23:41;;;;;;;;;;;;;;;;;;5009013;28;19952;-33
2022/10/10 09:26:06;;;;;;;;;;;;;;;;;;5010325;28;19909;-32
2022/10/10 09:28:32;;;;;;;;;;;;;;;;;;5010504;28;19943;-32
2022/10/10 09:30:57;;;;;;;;;;;;;;;;;;5015723;28;20091;-32
2022/10/10 09:33:22;;;;;;;;;;;;;;;;;;5009628;28;20333;-32
2022/10/10 09:35:47;;;;;;;;;;;;;;;;;;5011781;28;20614;-32
2022/10/10 09:38:12;;;;;;;;;;;;;;;;;;5009431;28;19920;-32
2022/10/10 09:40:37;;;;;;;;;;;;;;;;;;5012388;28;20390;-32
2022/10/10 09:43:03;;;;;;;;;;;;;;;;;;5011405;28;20028;-32
2022/10/10 09:45:28;;;;;;;;;;;;;;;;;;5009558;28;19921;-32
2022/10/10 09:47:53;;;;;;;;;;;;;;;;;;5009047;28;20008;-33
2022/10/10 09:50:18;;;;;;;;;;;;;;;;;;5013512;28;19917;-32
2022/10/10 09:52:43;;;;;;;;;;;;;;;;;;5012420;28;20282;-33
2022/10/10 09:55:08;;;;;;;;;;;;;;;;;;5009966;28;20375;-33
2022/10/10 09:57:34;;;;;;;;;;;;;;;;;;5009247;28;20279;-33
2022/10/10 09:59:59;;;;;;;;;;;;;;;;;;5014683;28;20080;-33
2022/10/10 10:02:25;;;;;;;;;;;;;;;;;;5010874;28;19940;-32
2022/10/10 10:04:51;;;;;;;;;;;;;;;;;;5008238;28;19930;-32
2022/10/10 10:07:16;;;;;;;;;;;;;;;;;;5007755;28;20027;-33
2022/10/10 10:09:41;;;;;;;;;;;;;;;;;;5008290;28;20474;-32
2022/10/10 10:12:07;;;;;;;;;;;;;;;;;;5011202;28;19921;-33
2022/10/10 10:14:32;;;;;;;;;;;;;;;;;;5012296;28;19921;-33
2022/10/10 10:16:57;;;;;;;;;;;;;;;;;;5011097;28;19924;-33
2022/10/10 10:19:22;;;;;;;;;;;;;;;;;;5011443;28;19921;-33
2022/10/10 10:21:47;;;;;;;;;;;;;;;;;;5014255;28;20336;-33
2022/10/10 10:24:12;;;;;;;;;;;;;;;;;;5008496;28;19921;-33
2022/10/10 10:26:37;;;;;;;;;;;;;;;;;;5013061;28;19913;-33
2022/10/10 10:29:03;;;;;;;;;;;;;;;;;;5009414;28;19952;-33
2022/10/10 10:31:29;;;;;;;;;;;;;;;;;;5008214;28;19917;-33
2022/10/10 10:33:54;;;;;;;;;;;;;;;;;;5011209;28;20052;-33
2022/10/10 10:36:20;;;;;;;;;;;;;;;;;;5009717;28;19953;-33
2022/10/10 10:38:45;;;;;;;;;;;;;;;;;;5009042;28;19917;-33
2022/10/10 10:41:10;;;;;;;;;;;;;;;;;;5007708;28;19948;-33
2022/10/10 10:43:35;;;;;;;;;;;;;;;;;;5010569;28;20174;-33
2022/10/10 10:46:00;;;;;;;;;;;;;;;;;;5012998;28;19922;-33
2022/10/10 10:48:25;;;;;;;;;;;;;;;;;;5010518;28;20340;-33
2022/10/10 10:50:51;;;;;;;;;;;;;;;;;;5010829;28;19917;-32
2022/10/10 10:53:16;;;;;;;;;;;;;;;;;;5009453;28;19921;-33
2022/10/10 10:55:41;;;;;;;;;;;;;;;;;;5010427;28;19914;-33
2022/10/10 10:58:06;;;;;;;;;;;;;;;;;;5008489;28;19964;-33
2022/10/10 11:00:31;;;;;;;;;;;;;;;;;;5015333;28;19918;-33
2022/10/10 11:02:56;;;;;;;;;;;;;;;;;;5016046;28;20184;-33
2022/10/10 11:05:22;;;;;;;;;;;;;;;;;;5005657;28;20102;-33
2022/10/10 11:07:47;;;;;;;;;;;;;;;;;;5014069;28;19917;-33
2022/10/10 11:10:12;;;;;;;;;;;;;;;;;;5007540;28;19921;-33
2022/10/10 11:12:37;;;;;;;;;;;;;;;;;;5012276;28;20359;-33
2022/10/10 11:15:02;;;;;;;;;;;;;;;;;;5008755;28;19929;-33
2022/10/10 11:17:27;;;;;;;;;;;;;;;;;;5008816;28;19968;-33
2022/10/10 11:19:55;;;;;;;;;;;;;;;;;;5011344;28;19917;-33
2022/10/10 11:22:20;;;;;;;;;;;;;;;;;;5010544;28;20007;-33
2022/10/10 11:24:45;;;;;;;;;;;;;;;;;;5010467;28;19939;-33
2022/10/10 11:27:11;;;;;;;;;;;;;;;;;;5012233;28;19913;-33
2022/10/10 11:29:36;;;;;;;;;;;;;;;;;;5011815;28;19917;-33
2022/10/10 11:32:01;;;;;;;;;;;;;;;;;;5015969;28;19917;-33
2022/10/10 11:34:27;;;;;;;;;;;;;;;;;;5012882;28;19940;-33
2022/10/10 11:36:52;;;;;;;;;;;;;;;;;;5015027;28;19932;-33
2022/10/10 11:39:17;;;;;;;;;;;;;;;;;;5016172;28;19928;-33
2022/10/10 11:41:42;;;;;;;;;;;;;;;;;;5030079;23;20020;-32
2022/10/10 11:44:07;;;;;;;;;;;;;;;;;;5021935;28;19975;-32
2022/10/10 11:46:32;;;;;;;;;;;;;;;;;;5020868;28;19917;-32
2022/10/10 11:48:58;;;;;;;;;;;;;;;;;;5024022;28;19979;-32
2022/10/10 11:51:23;;;;;;;;;;;;;;;;;;5021460;28;20472;-32
2022/10/10 11:53:48;;;;;;;;;;;;;;;;;;5020433;28;19960;-32
2022/10/10 11:56:13;;;;;;;;;;;;;;;;;;5016210;28;19921;-32
2022/10/10 11:58:38;;;;;;;;;;;;;;;;;;5022782;28;19928;-33
2022/10/10 12:01:04;;;;;;;;;;;;;;;;;;5019526;28;20188;-34
2022/10/10 12:03:29;;;;;;;;;;;;;;;;;;5019292;28;19932;-33
2022/10/10 12:05:54;;;;;;;;;;;;;;;;;;5019524;28;19957;-34
2022/10/10 12:08:19;;;;;;;;;;;;;;;;;;5021709;28;19975;-34
2022/10/10 12:10:45;;;;;;;;;;;;;;;;;;5019576;28;20111;-34
2022/10/10 12:13:10;;;;;;;;;;;;;;;;;;5021095;28;20433;-34
2022/10/10 12:15:35;;;;;;;;;;;;;;;;;;5021841;28;19924;-34
2022/10/10 12:18:00;;;;;;;;;;;;;;;;;;5022343;28;20610;-33
2022/10/10 12:20:25;;;;;;;;;;;;;;;;;;5019176;28;20016;-34
2022/10/10 12:22:51;;;;;;;;;;;;;;;;;;5019719;28;19992;-34
2022/10/10 12:25:16;;;;;;;;;;;;;;;;;;5021127;28;19920;-34
2022/10/10 12:27:41;;;;;;;;;;;;;;;;;;5021311;28;19963;-34
2022/10/10 12:30:06;;;;;;;;;;;;;;;;;;5021682;28;20326;-34
2022/10/10 12:32:31;;;;;;;;;;;;;;;;;;5020419;28;19917;-33
2022/10/10 12:34:57;;;;;;;;;;;;;;;;;;5023100;28;19917;-34
2022/10/10 12:37:24;;;;;;;;;;;;;;;;;;5019090;28;20144;-34
2022/10/10 12:39:49;;;;;;;;;;;;;;;;;;5023478;28;20375;-34
2022/10/10 12:42:15;;;;;;;;;;;;;;;;;;5019449;28;20019;-34
2022/10/10 12:44:40;;;;;;;;;;;;;;;;;;5018694;28;20996;-34
2022/10/10 12:47:05;;;;;;;;;;;;;;;;;;5019304;28;19923;-34
2022/10/10 12:49:30;;;;;;;;;;;;;;;;;;5019064;28;20350;-34
2022/10/10 12:51:55;;;;;;;;;;;;;;;;;;5021668;28;19918;-34
2022/10/10 12:54:20;;;;;;;;;;;;;;;;;;5019679;28;20004;-34
2022/10/10 12:56:46;;;;;;;;;;;;;;;;;;5022141;28;20584;-35
2022/10/10 12:59:11;;;;;;;;;;;;;;;;;;5021730;28;19948;-34
2022/10/10 13:01:36;;;;;;;;;;;;;;;;;;5021964;28;20387;-34
2022/10/10 13:04:01;;;;;;;;;;;;;;;;;;5022334;28;19913;-34
2022/10/10 13:06:26;;;;;;;;;;;;;;;;;;5022999;28;19925;-34
2022/10/10 13:08:51;;;;;;;;;;;;;;;;;;5022313;28;19917;-34
2022/10/10 13:11:17;;;;;;;;;;;;;;;;;;5017019;28;19952;-34
2022/10/10 13:13:42;;;;;;;;;;;;;;;;;;5023146;28;19913;-34
2022/10/10 13:16:07;;;;;;;;;;;;;;;;;;5022054;28;19953;-35
2022/10/10 13:18:32;;;;;;;;;;;;;;;;;;5020846;28;20379;-34
2022/10/10 13:20:58;;;;;;;;;;;;;;;;;;5022838;28;19952;-35
2022/10/10 13:23:23;;;;;;;;;;;;;;;;;;5021452;28;20373;-35
2022/10/10 13:25:48;;;;;;;;;;;;;;;;;;5022858;28;19952;-34
2022/10/10 13:28:13;;;;;;;;;;;;;;;;;;5019773;28;20421;-34
2022/10/10 13:30:38;;;;;;;;;;;;;;;;;;5022568;28;20060;-34
2022/10/10 13:33:03;;;;;;;;;;;;;;;;;;5020110;28;19921;-34
2022/10/10 13:35:29;;;;;;;;;;;;;;;;;;5021164;28;19917;-34
2022/10/10 13:37:54;;;;;;;;;;;;;;;;;;5022899;28;19924;-34
2022/10/10 13:40:19;;;;;;;;;;;;;;;;;;5022818;28;19928;-34
2022/10/10 13:42:44;;;;;;;;;;;;;;;;;;5022934;28;20570;-35
2022/10/10 13:45:09;;;;;;;;;;;;;;;;;;5020418;28;19913;-35
2022/10/10 13:47:34;;;;;;;;;;;;;;;;;;5018041;28;19954;-34
2022/10/10 13:50:00;;;;;;;;;;;;;;;;;;5021546;28;19988;-35
2022/10/10 13:52:25;;;;;;;;;;;;;;;;;;5022717;28;19917;-35
2022/10/10 13:54:50;;;;;;;;;;;;;;;;;;5021837;28;19913;-34
2022/10/10 13:57:15;;;;;;;;;;;;;;;;;;5015751;28;20378;-34
2022/10/10 13:59:40;;;;;;;;;;;;;;;;;;5023108;28;19921;-34
2022/10/10 14:02:06;;;;;;;;;;;;;;;;;;5022009;28;19917;-34
2022/10/10 14:04:31;;;;;;;;;;;;;;;;;;5019493;28;20621;-34
2022/10/10 14:06:56;;;;;;;;;;;;;;;;;;5021192;28;19917;-35
2022/10/10 14:09:21;;;;;;;;;;;;;;;;;;5021669;28;20638;-35
2022/10/10 14:11:46;;;;;;;;;;;;;;;;;;5020567;28;20379;-34
2022/10/10 14:14:11;;;;;;;;;;;;;;;;;;5020469;28;19917;-34
2022/10/10 14:16:37;;;;;;;;;;;;;;;;;;5020557;28;19959;-35
2022/10/10 14:19:02;;;;;;;;;;;;;;;;;;5019655;28;20375;-34
2022/10/10 14:21:27;;;;;;;;;;;;;;;;;;5021358;28;19921;-34
2022/10/10 14:23:52;;;;;;;;;;;;;;;;;;5020801;28;20375;-34
2022/10/10 14:26:17;;;;;;;;;;;;;;;;;;5021591;28;19925;-33
2022/10/10 14:28:42;;;;;;;;;;;;;;;;;;5020365;28;19943;-34
2022/10/10 14:31:08;;;;;;;;;;;;;;;;;;5022805;28;19921;-32
2022/10/10 14:33:33;;;;;;;;;;;;;;;;;;5018575;28;20011;-32
2022/10/10 14:35:59;;;;;;;;;;;;;;;;;;5021842;28;20035;-32
2022/10/10 14:38:24;;;;;;;;;;;;;;;;;;5020859;28;19946;-32
2022/10/10 14:40:49;;;;;;;;;;;;;;;;;;5019755;28;20446;-32
2022/10/10 14:43:15;;;;;;;;;;;;;;;;;;5018281;28;19921;-33
2022/10/10 14:45:40;;;;;;;;;;;;;;;;;;5019727;28;19917;-32
2022/10/10 14:48:05;;;;;;;;;;;;;;;;;;5020144;28;19925;-32
2022/10/10 14:50:31;;;;;;;;;;;;;;;;;;5020321;28;20347;-32
2022/10/10 14:52:56;;;;;;;;;;;;;;;;;;5021398;28;19924;-32
2022/10/10 14:55:21;;;;;;;;;;;;;;;;;;5019292;28;19945;-32
2022/10/10 14:57:46;;;;;;;;;;;;;;;;;;5022599;28;19921;-32
2022/10/10 15:00:11;;;;;;;;;;;;;;;;;;5022643;28;20221;-32
2022/10/10 15:02:36;;;;;;;;;;;;;;;;;;5025177;28;20132;-32
2022/10/10 15:05:02;;;;;;;;;;;;;;;;;;5021956;28;19917;-32
2022/10/10 15:07:27;;;;;;;;;;;;;;;;;;5022726;28;20397;-32
2022/10/10 15:09:52;;;;;;;;;;;;;;;;;;5021773;28;19923;-32
2022/10/10 15:12:17;;;;;;;;;;;;;;;;;;5022881;28;20300;-32
2022/10/10 15:14:42;;;;;;;;;;;;;;;;;;5024191;28;19940;-33
2022/10/10 15:17:08;;;;;;;;;;;;;;;;;;5025497;28;19921;-32
2022/10/10 15:19:33;;;;;;;;;;;;;;;;;;5022748;28;19936;-32
2022/10/10 15:21:58;;;;;;;;;;;;;;;;;;5024506;28;20441;-33
2022/10/10 15:24:23;;;;;;;;;;;;;;;;;;5023137;28;19971;-32
2022/10/10 15:26:48;;;;;;;;;;;;;;;;;;5026299;28;20417;-32
2022/10/10 15:29:13;;;;;;;;;;;;;;;;;;5024088;28;19928;-32
2022/10/10 15:31:38;;;;;;;;;;;;;;;;;;5024389;28;19913;-32
2022/10/10 15:34:04;;;;;;;;;;;;;;;;;;5022690;28;19924;-32
2022/10/10 15:36:30;;;;;;;;;;;;;;;;;;5024395;28;19983;-32
2022/10/10 15:38:55;;;;;;;;;;;;;;;;;;5023491;28;20263;-32
2022/10/10 15:41:20;;;;;;;;;;;;;;;;;;5023473;28;19921;-32
2022/10/10 15:43:46;;;;;;;;;;;;;;;;;;5024333;28;19927;-32
2022/10/10 15:46:11;;;;;;;;;;;;;;;;;;5021315;28;20365;-32
2022/10/10 15:48:36;;;;;;;;;;;;;;;;;;5022250;28;19916;-32
2022/10/10 15:51:01;;;;;;;;;;;;;;;;;;5024280;28;20259;-32
2022/10/10 15:53:26;;;;;;;;;;;;;;;;;;5021840;28;20051;-32
2022/10/10 15:55:51;;;;;;;;;;;;;;;;;;5024078;28;20015;-32
2022/10/10 15:58:17;;;;;;;;;;;;;;;;;;5023291;28;19921;-32
2022/10/10 16:00:42;;;;;;;;;;;;;;;;;;5022701;28;20306;-32
2022/10/10 16:03:07;;;;;;;;;;;;;;;;;;5022826;28;19913;-32
2022/10/10 16:05:32;;;;;;;;;;;;;;;;;;5022950;28;19996;-32
2022/10/10 16:07:57;;;;;;;;;;;;;;;;;;5023145;28;19920;-32
2022/10/10 16:10:22;;;;;;;;;;;;;;;;;;5022125;28;20339;-32
2022/10/10 16:12:48;;;;;;;;;;;;;;;;;;5023795;28;19924;-32
2022/10/10 16:15:13;;;;;;;;;;;;;;;;;;5021130;28;19944;-32
2022/10/10 16:17:38;;;;;;;;;;;;;;;;;;5025032;28;19921;-32
2022/10/10 16:20:03;;;;;;;;;;;;;;;;;;5022299;28;20359;-32
2022/10/10 16:22:28;;;;;;;;;;;;;;;;;;5022219;28;20415;-32
2022/10/10 16:24:54;;;;;;;;;;;;;;;;;;5021303;28;20224;-32
2022/10/10 16:27:20;;;;;;;;;;;;;;;;;;5023963;28;20758;-32
2022/10/10 16:29:45;;;;;;;;;;;;;;;;;;5023961;28;20059;-32
2022/10/10 16:32:10;;;;;;;;;;;;;;;;;;5023883;28;19913;-32